Time;durP1;ratioP1;P1;durP2;ratioP2;P2;SDS_P1;SDS_P2;PMS_P1;PMS_P2;Temp;Humidity;BMP_temperature;BMP_pressure;BME280_temperature;BME280_humidity;BME280_pressure;Samples;Min_cycle;Max_cycle;Signal;HPM_P1;HPM_P2
2024/03/22 00:01:26;;;;;;;23.23;9.10;;;4.70;99.90;;;;;;8376442;28;20033;-84
2024/03/22 00:05:27;;;;;;;22.05;9.75;;;4.70;99.90;;;;;;8388858;28;20041;-84
2024/03/22 00:09:27;;;;;;;21.65;8.95;;;4.60;99.90;;;;;;8381413;28;20100;-84
2024/03/22 00:13:28;;;;;;;19.85;9.45;;;4.50;99.90;;;;;;8360983;28;20021;-84
2024/03/22 00:17:30;;;;;;;21.80;9.23;;;4.30;99.90;;;;;;8377949;28;20024;-84
2024/03/22 00:21:31;;;;;;;18.77;9.35;;;4.20;99.90;;;;;;8365854;28;20036;-84
2024/03/22 00:25:32;;;;;;;22.00;9.43;;;4.20;99.90;;;;;;8364442;28;20028;-84
2024/03/22 00:29:32;;;;;;;25.23;9.40;;;4.20;99.90;;;;;;8385433;28;20016;-84
2024/03/22 00:33:33;;;;;;;26.20;9.98;;;4.10;99.90;;;;;;8394094;28;20029;-83
2024/03/22 00:37:33;;;;;;;22.30;10.07;;;3.90;99.90;;;;;;8383106;28;20470;-83
2024/03/22 00:41:34;;;;;;;23.52;8.98;;;4.00;99.90;;;;;;8364568;28;20021;-83
2024/03/22 00:45:34;;;;;;;20.67;8.90;;;3.90;99.90;;;;;;8373928;28;20120;-83
2024/03/22 00:49:35;;;;;;;25.38;9.38;;;3.90;99.90;;;;;;8391721;28;20021;-84
2024/03/22 00:53:35;;;;;;;22.95;9.70;;;4.00;99.90;;;;;;8387935;28;20027;-84
2024/03/22 00:57:36;;;;;;;21.55;8.85;;;4.10;99.90;;;;;;8391664;28;20039;-83
2024/03/22 01:01:38;;;;;;;20.52;8.20;;;4.00;99.90;;;;;;8369587;28;20028;-84
2024/03/22 01:05:39;;;;;;;19.58;8.98;;;4.10;99.90;;;;;;8394919;28;20032;-83
2024/03/22 01:09:40;;;;;;;20.17;8.55;;;3.90;99.90;;;;;;8373008;28;20024;-84
2024/03/22 01:13:40;;;;;;;18.10;7.53;;;3.90;99.90;;;;;;8381277;28;20029;-83
2024/03/22 01:17:41;;;;;;;18.30;7.90;;;3.70;99.90;;;;;;8380429;28;20040;-83
2024/03/22 01:21:42;;;;;;;19.10;7.82;;;3.50;99.90;;;;;;8390474;28;20453;-84
2024/03/22 01:25:43;;;;;;;20.48;8.43;;;3.30;99.90;;;;;;8387499;28;20039;-83
2024/03/22 01:29:43;;;;;;;16.60;7.82;;;3.10;99.90;;;;;;8381069;28;20020;-84
2024/03/22 01:33:44;;;;;;;19.15;7.50;;;3.00;99.90;;;;;;8382333;28;20013;-84
2024/03/22 01:37:44;;;;;;;17.70;7.47;;;2.90;99.90;;;;;;8388869;28;20021;-83
2024/03/22 01:41:45;;;;;;;18.20;7.32;;;3.00;99.90;;;;;;8379286;28;20044;-83
2024/03/22 01:45:45;;;;;;;17.08;8.23;;;3.00;99.90;;;;;;8382368;28;20020;-83
2024/03/22 01:49:47;;;;;;;18.13;8.57;;;2.90;99.90;;;;;;8366133;28;20417;-84
2024/03/22 01:53:48;;;;;;;16.40;8.40;;;2.90;99.90;;;;;;8375417;28;20109;-82
2024/03/22 01:57:51;;;;;;;17.50;7.97;;;2.80;99.90;;;;;;8373704;28;20025;-83
2024/03/22 02:01:52;;;;;;;18.85;8.90;;;2.70;99.90;;;;;;8383063;28;20370;-83
2024/03/22 02:05:52;;;;;;;21.88;8.55;;;2.60;99.90;;;;;;8387762;28;20116;-84
2024/03/22 02:09:53;;;;;;;13.90;5.97;;;2.60;99.90;;;;;;8388822;28;20027;-84
2024/03/22 02:13:53;;;;;;;15.65;7.20;;;2.50;99.90;;;;;;8385512;28;20032;-84
2024/03/22 02:17:54;;;;;;;13.02;7.05;;;2.40;99.90;;;;;;8368716;28;20031;-84
2024/03/22 02:21:54;;;;;;;18.52;8.25;;;2.20;99.90;;;;;;8395176;28;20025;-84
2024/03/22 02:25:55;;;;;;;15.05;6.85;;;2.10;99.90;;;;;;8378778;28;20040;-84
2024/03/22 02:29:56;;;;;;;13.70;6.75;;;2.00;99.90;;;;;;8376149;28;20023;-84
2024/03/22 02:33:56;;;;;;;23.08;8.50;;;2.00;99.90;;;;;;8363329;28;20536;-84
2024/03/22 02:37:58;;;;;;;20.30;7.80;;;2.00;99.90;;;;;;8360875;28;20071;-84
2024/03/22 02:41:59;;;;;;;15.18;7.50;;;2.00;99.90;;;;;;8364592;28;20077;-84
2024/03/22 02:45:59;;;;;;;13.32;5.97;;;1.90;99.90;;;;;;8401662;28;20024;-84
2024/03/22 02:50:00;;;;;;;15.77;7.70;;;1.90;99.90;;;;;;8376746;28;20112;-84
2024/03/22 02:54:01;;;;;;;15.75;6.70;;;2.00;99.90;;;;;;8367994;28;20047;-84
2024/03/22 02:58:02;;;;;;;14.18;6.10;;;1.90;99.90;;;;;;8390904;28;20029;-84
2024/03/22 03:02:03;;;;;;;17.92;6.95;;;1.90;99.90;;;;;;8367991;28;20028;-84
2024/03/22 03:06:04;;;;;;;21.45;7.57;;;1.90;99.90;;;;;;8392072;28;20039;-84
2024/03/22 03:10:04;;;;;;;17.15;7.85;;;1.90;99.90;;;;;;8385413;28;20057;-83
2024/03/22 03:14:06;;;;;;;17.60;7.65;;;2.10;99.90;;;;;;8380966;28;20032;-83
2024/03/22 03:18:06;;;;;;;15.95;7.13;;;2.10;99.90;;;;;;8372614;28;20024;-84
2024/03/22 03:22:07;;;;;;;18.58;7.35;;;2.00;99.90;;;;;;8382513;28;20055;-83
2024/03/22 03:26:07;;;;;;;17.13;7.57;;;1.90;99.90;;;;;;8373488;28;20119;-84
2024/03/22 03:30:08;;;;;;;18.83;7.57;;;1.80;99.90;;;;;;8371715;28;20020;-84
2024/03/22 03:34:09;;;;;;;15.45;6.95;;;1.70;99.90;;;;;;8375614;28;20105;-85
2024/03/22 03:38:12;;;;;;;14.82;6.95;;;1.70;99.90;;;;;;8366275;28;20107;-85
2024/03/22 03:42:13;;;;;;;15.63;7.45;;;1.80;99.90;;;;;;8382948;28;20021;-85
2024/03/22 03:46:13;;;;;;;17.60;7.43;;;1.80;99.90;;;;;;8381529;28;20060;-84
2024/03/22 03:50:14;;;;;;;20.85;7.03;;;1.80;99.90;;;;;;8377258;28;20500;-85
2024/03/22 03:54:14;;;;;;;16.77;6.70;;;1.60;99.90;;;;;;8384065;28;20021;-85
2024/03/22 03:58:17;;;;;;;18.08;7.07;;;1.50;99.90;;;;;;8377814;28;20032;-84
2024/03/22 04:02:18;;;;;;;18.08;7.38;;;1.50;99.90;;;;;;8363208;28;20393;-84
2024/03/22 04:06:18;;;;;;;23.02;7.65;;;1.60;99.90;;;;;;8390593;28;20040;-85
2024/03/22 04:10:19;;;;;;;17.15;7.15;;;1.60;99.90;;;;;;8383212;28;20393;-85
2024/03/22 04:14:19;;;;;;;17.25;7.15;;;1.60;99.90;;;;;;8388581;28;20097;-84
2024/03/22 04:18:20;;;;;;;16.35;7.30;;;1.50;99.90;;;;;;8382072;28;20043;-85
2024/03/22 04:22:20;;;;;;;15.60;7.43;;;1.60;99.90;;;;;;8370090;28;20025;-85
2024/03/22 04:26:21;;;;;;;19.85;7.38;;;1.60;99.90;;;;;;8379352;28;20028;-84
2024/03/22 04:30:21;;;;;;;16.27;6.88;;;1.70;99.90;;;;;;8374465;28;20035;-84
2024/03/22 04:34:22;;;;;;;17.45;6.82;;;1.60;99.90;;;;;;8385669;28;20079;-84
2024/03/22 04:38:24;;;;;;;16.10;6.78;;;1.60;99.90;;;;;;8385608;28;20024;-85
2024/03/22 04:42:24;;;;;;;19.58;6.35;;;1.70;99.90;;;;;;8378140;28;20053;-85
2024/03/22 04:46:24;;;;;;;14.68;6.95;;;1.80;99.90;;;;;;8367785;28;20033;-84
2024/03/22 04:50:25;;;;;;;11.82;6.47;;;1.80;99.90;;;;;;8379146;28;20051;-84
2024/03/22 04:54:25;;;;;;;20.08;7.95;;;1.90;99.90;;;;;;8381766;28;20021;-85
2024/03/22 04:58:26;;;;;;;13.98;6.95;;;1.80;99.90;;;;;;8374093;28;20684;-85
2024/03/22 05:02:27;;;;;;;15.02;6.93;;;1.90;99.90;;;;;;8367910;28;20024;-85
2024/03/22 05:06:27;;;;;;;17.52;8.93;;;2.10;99.90;;;;;;8345773;28;20030;-84
2024/03/22 05:10:29;;;;;;;19.40;9.27;;;2.20;99.90;;;;;;8347898;28;20113;-85
2024/03/22 05:14:29;;;;;;;23.27;10.00;;;2.20;99.90;;;;;;8339207;28;20112;-85
2024/03/22 05:18:30;;;;;;;19.65;9.10;;;2.20;99.90;;;;;;8329406;28;20072;-85
2024/03/22 05:22:30;;;;;;;19.17;8.73;;;2.20;99.90;;;;;;8316835;28;20156;-85
2024/03/22 05:26:35;;;;;;;14.93;7.93;;;2.30;99.90;;;;;;8325111;28;20481;-84
2024/03/22 05:30:36;;;;;;;15.25;7.43;;;2.40;99.90;;;;;;8312501;28;20025;-85
2024/03/22 05:34:37;;;;;;;17.02;7.35;;;2.50;99.90;;;;;;8346145;28;20456;-84
2024/03/22 05:38:37;;;;;;;13.05;7.20;;;2.60;99.90;;;;;;8354482;28;20497;-85
2024/03/22 05:42:37;;;;;;;14.93;6.90;;;2.70;99.90;;;;;;8341021;28;20029;-85
2024/03/22 05:46:38;;;;;;;18.25;8.23;;;2.60;99.90;;;;;;8336825;28;20029;-85
2024/03/22 05:50:38;;;;;;;15.68;6.80;;;2.70;99.90;;;;;;8328032;28;20022;-85
2024/03/22 05:54:39;;;;;;;12.82;6.75;;;3.00;99.90;;;;;;8348300;28;20103;-85
2024/03/22 05:58:40;;;;;;;12.00;6.82;;;3.10;99.90;;;;;;8350644;28;20037;-85
2024/03/22 06:02:40;;;;;;;15.18;7.50;;;3.30;99.90;;;;;;8347693;28;20022;-85
2024/03/22 06:06:41;;;;;;;18.33;8.70;;;3.60;99.90;;;;;;8358764;28;20036;-85
2024/03/22 06:10:42;;;;;;;15.07;7.75;;;4.00;99.90;;;;;;8350212;28;20083;-84
2024/03/22 06:14:42;;;;;;;12.10;6.55;;;4.10;99.90;;;;;;8329411;28;20482;-84
2024/03/22 06:18:43;;;;;;;15.95;7.05;;;4.00;99.90;;;;;;8345808;28;20047;-84
2024/03/22 06:22:44;;;;;;;16.77;8.20;;;4.10;99.90;;;;;;8326794;28;20025;-84
2024/03/22 06:26:44;;;;;;;14.93;7.35;;;4.20;99.90;;;;;;8345169;28;20104;-84
2024/03/22 06:30:45;;;;;;;15.38;7.63;;;4.10;99.90;;;;;;8344190;28;20067;-83
2024/03/22 06:34:45;;;;;;;13.77;7.47;;;4.30;99.90;;;;;;8317105;28;20087;-84
2024/03/22 06:38:46;;;;;;;17.02;8.32;;;4.40;99.90;;;;;;8342057;28;20037;-84
2024/03/22 06:42:47;;;;;;;14.73;7.78;;;4.40;99.90;;;;;;8341099;28;20662;-84
2024/03/22 06:46:47;;;;;;;11.60;6.95;;;4.50;99.90;;;;;;8350652;28;20029;-84
2024/03/22 06:50:48;;;;;;;13.77;6.75;;;4.60;99.90;;;;;;8332850;28;20053;-84
2024/03/22 06:54:48;;;;;;;15.38;8.07;;;4.70;99.90;;;;;;8357919;28;20026;-84
2024/03/22 06:58:49;;;;;;;14.57;7.13;;;5.00;99.90;;;;;;8349883;28;20075;-84
2024/03/22 07:02:49;;;;;;;10.68;6.70;;;5.10;99.90;;;;;;8336300;28;20029;-84
2024/03/22 07:06:50;;;;;;;13.57;6.55;;;5.30;99.90;;;;;;8384614;28;20112;-84
2024/03/22 07:10:53;;;;;;;13.75;7.05;;;5.40;99.90;;;;;;8371093;28;20041;-83
2024/03/22 07:14:55;;;;;;;19.02;8.00;;;5.50;99.90;;;;;;8379088;28;20025;-83
2024/03/22 07:18:55;;;;;;;15.43;7.65;;;5.80;99.90;;;;;;8375193;28;20025;-83
2024/03/22 07:22:56;;;;;;;16.77;8.63;;;6.20;99.90;;;;;;8403832;28;20032;-83
2024/03/22 07:26:56;;;;;;;15.10;8.02;;;6.50;99.90;;;;;;8384238;28;20033;-83
2024/03/22 07:30:57;;;;;;;12.68;6.28;;;7.00;99.90;;;;;;8380694;28;20025;-84
2024/03/22 07:34:57;;;;;;;13.38;7.07;;;7.20;99.90;;;;;;8358392;28;20027;-83
2024/03/22 07:38:58;;;;;;;9.73;6.18;;;7.60;99.90;;;;;;8361606;28;20056;-82
2024/03/22 07:42:59;;;;;;;11.82;6.40;;;8.00;99.90;;;;;;8378097;28;20079;-83
2024/03/22 07:46:59;;;;;;;8.77;5.50;;;8.40;99.90;;;;;;8385574;28;20024;-83
2024/03/22 07:51:01;;;;;;;8.57;5.30;;;8.70;99.90;;;;;;8370361;28;20028;-83
2024/03/22 07:55:02;;;;;;;5.68;3.85;;;8.70;99.90;;;;;;8380499;28;20140;-83
2024/03/22 07:59:03;;;;;;;5.40;4.00;;;9.20;99.90;;;;;;8382253;28;20028;-83
2024/03/22 08:03:04;;;;;;;9.00;4.65;;;9.60;99.90;;;;;;8370942;28;20025;-83
2024/03/22 08:07:04;;;;;;;7.47;3.63;;;9.80;99.90;;;;;;8383067;28;20127;-83
2024/03/22 08:11:05;;;;;;;6.78;4.60;;;10.10;99.90;;;;;;8375161;28;20017;-83
2024/03/22 08:15:06;;;;;;;8.23;4.65;;;10.30;99.90;;;;;;8377404;28;20115;-83
2024/03/22 08:19:06;;;;;;;10.00;4.47;;;10.50;99.90;;;;;;8374276;28;20449;-84
2024/03/22 08:23:07;;;;;;;6.95;4.63;;;10.50;99.90;;;;;;8354600;28;20032;-83
2024/03/22 08:27:07;;;;;;;9.57;5.78;;;10.70;99.90;;;;;;8370601;28;20079;-83
2024/03/22 08:31:08;;;;;;;7.07;4.53;;;11.10;99.90;;;;;;8376319;28;20021;-83
2024/03/22 08:35:08;;;;;;;6.82;4.40;;;11.60;99.90;;;;;;8353550;28;20032;-84
2024/03/22 08:39:10;;;;;;;6.13;4.40;;;11.80;99.90;;;;;;8351243;28;20021;-83
2024/03/22 08:43:10;;;;;;;6.35;4.28;;;12.00;99.90;;;;;;8359165;28;20032;-84
2024/03/22 08:47:11;;;;;;;6.43;4.50;;;12.10;99.90;;;;;;8358297;28;20032;-83
2024/03/22 08:51:12;;;;;;;8.45;4.35;;;12.40;99.90;;;;;;8369058;28;20485;-83
2024/03/22 08:55:13;;;;;;;5.80;3.95;;;12.50;99.90;;;;;;8376366;28;20029;-83
2024/03/22 08:59:13;;;;;;;7.95;4.53;;;12.60;99.90;;;;;;8373787;28;20036;-83
2024/03/22 09:03:14;;;;;;;6.93;4.40;;;12.90;99.90;;;;;;8365730;28;20032;-83
2024/03/22 09:07:15;;;;;;;5.32;4.20;;;13.00;99.90;;;;;;8376912;28;20546;-83
2024/03/22 09:11:15;;;;;;;8.38;4.55;;;13.30;99.90;;;;;;8374359;28;20025;-83
2024/03/22 09:15:16;;;;;;;7.40;3.80;;;13.50;99.90;;;;;;8376339;28;20507;-83
2024/03/22 09:19:16;;;;;;;5.55;4.10;;;13.50;99.90;;;;;;8373353;28;20032;-83
2024/03/22 09:23:17;;;;;;;5.88;3.85;;;13.60;99.90;;;;;;8385936;28;20029;-82
2024/03/22 09:27:17;;;;;;;5.40;3.55;;;14.00;99.90;;;;;;8374374;28;20036;-83
2024/03/22 09:31:18;;;;;;;5.45;3.47;;;14.30;99.90;;;;;;8375497;28;20405;-82
2024/03/22 09:35:19;;;;;;;7.65;3.28;;;14.60;99.90;;;;;;8363280;28;20417;-83
2024/03/22 09:39:20;;;;;;;4.55;3.42;;;15.00;99.90;;;;;;8360826;28;20039;-83
2024/03/22 09:43:21;;;;;;;4.38;3.15;;;15.50;99.90;;;;;;8368986;28;20033;-83
2024/03/22 09:47:24;;;;;;;4.32;2.97;;;15.90;99.90;;;;;;8350544;28;20032;-84
2024/03/22 09:51:24;;;;;;;3.85;2.58;;;16.40;99.90;;;;;;8358610;28;20660;-83
2024/03/22 09:55:25;;;;;;;5.32;2.35;;;16.70;99.90;;;;;;8376455;28;20029;-83
2024/03/22 09:59:26;;;;;;;4.03;3.03;;;16.90;99.90;;;;;;8355795;28;20035;-83
2024/03/22 10:03:26;;;;;;;3.15;2.80;;;16.90;99.90;;;;;;8362776;28;20029;-84
2024/03/22 10:07:27;;;;;;;4.65;2.75;;;17.20;99.90;;;;;;8368255;28;20028;-83
2024/03/22 10:11:28;;;;;;;4.50;2.70;;;17.30;99.90;;;;;;8361450;28;20044;-83
2024/03/22 10:15:30;;;;;;;3.88;2.83;;;17.30;99.90;;;;;;8360337;28;20495;-84
2024/03/22 10:19:30;;;;;;;3.75;2.78;;;17.60;99.90;;;;;;8349817;28;20622;-82
2024/03/22 10:23:32;;;;;;;4.32;2.72;;;18.00;99.90;;;;;;8357193;28;20021;-83
2024/03/22 10:27:32;;;;;;;3.80;2.50;;;18.60;99.90;;;;;;8347787;28;20029;-83
2024/03/22 10:31:35;;;;;;;3.58;2.80;;;18.70;99.90;;;;;;8380158;28;20050;-83
2024/03/22 10:35:36;;;;;;;3.95;2.90;;;19.10;99.90;;;;;;8366646;28;20378;-84
2024/03/22 10:39:38;;;;;;;3.60;2.67;;;19.80;99.90;;;;;;8379461;28;20029;-83
2024/03/22 10:43:39;;;;;;;3.70;2.60;;;20.30;99.90;;;;;;8359843;28;20029;-82
2024/03/22 10:47:40;;;;;;;3.97;2.88;;;20.10;99.90;;;;;;8372119;28;20455;-84
2024/03/22 10:51:42;;;;;;;5.30;2.72;;;20.00;99.90;;;;;;8364226;28;20029;-83
2024/03/22 10:55:44;;;;;;;4.72;3.03;;;20.30;99.90;;;;;;8374866;28;20045;-84
2024/03/22 10:59:46;;;;;;;4.15;3.05;;;20.40;99.90;;;;;;8377318;28;20030;-84
2024/03/22 11:03:47;;;;;;;3.70;2.78;;;20.40;99.90;;;;;;8377436;28;20086;-81
2024/03/22 11:07:48;;;;;;;7.22;3.10;;;21.00;99.90;;;;;;8379624;28;20504;-84
2024/03/22 11:11:51;;;;;;;3.22;2.92;;;21.80;99.90;;;;;;8380647;28;20060;-84
2024/03/22 11:15:52;;;;;;;3.67;2.65;;;21.90;99.90;;;;;;8369553;28;20620;-84
2024/03/22 11:19:52;;;;;;;3.92;2.60;;;22.60;99.90;;;;;;8371297;28;20037;-84
2024/03/22 11:23:53;;;;;;;3.95;2.97;;;22.60;99.90;;;;;;8381519;28;20020;-85
2024/03/22 11:27:55;;;;;;;4.00;2.75;;;22.10;99.90;;;;;;8371411;28;20024;-83
2024/03/22 11:31:56;;;;;;;4.18;2.83;;;22.10;99.90;;;;;;8378904;28;20535;-83
2024/03/22 11:35:59;;;;;;;3.65;2.78;;;22.40;99.90;;;;;;8373371;28;20025;-84
2024/03/22 11:40:03;;;;;;;4.13;2.47;;;23.30;99.90;;;;;;8375657;28;20052;-84
2024/03/22 11:44:03;;;;;;;2.40;1.80;;;22.90;99.90;;;;;;8380362;28;20021;-84
2024/03/22 11:48:06;;;;;;;1.85;1.63;;;23.10;99.70;;;;;;8375263;28;20017;-84
2024/03/22 11:52:08;;;;;;;3.20;2.15;;;23.70;98.80;;;;;;8359843;28;20120;-83
2024/03/22 11:56:08;;;;;;;2.40;1.98;;;23.70;99.90;;;;;;8375732;28;20033;-84
2024/03/22 12:00:09;;;;;;;2.90;2.10;;;23.60;98.20;;;;;;8370392;28;20477;-84
2024/03/22 12:04:14;;;;;;;3.15;1.50;;;23.50;99.90;;;;;;8379808;28;20066;-84
2024/03/22 12:08:15;;;;;;;1.65;1.55;;;22.70;99.40;;;;;;8354993;28;20036;-85
2024/03/22 12:12:15;;;;;;;1.80;1.55;;;22.80;97.00;;;;;;8366876;28;20112;-84
2024/03/22 12:16:16;;;;;;;1.75;1.30;;;22.90;96.60;;;;;;8355740;28;20054;-83
2024/03/22 12:20:16;;;;;;;2.42;1.45;;;22.80;96.00;;;;;;8365659;28;20020;-84
2024/03/22 12:24:17;;;;;;;2.40;1.50;;;23.10;95.30;;;;;;8377503;28;20028;-82
2024/03/22 12:28:19;;;;;;;2.63;1.70;;;23.90;94.10;;;;;;8383632;28;20028;-83
2024/03/22 12:32:19;;;;;;;2.15;1.48;;;24.20;94.00;;;;;;8401872;28;20029;-83
2024/03/22 12:36:20;;;;;;;1.65;1.55;;;23.60;94.40;;;;;;8359779;28;20539;-83
2024/03/22 12:40:20;;;;;;;1.98;1.42;;;22.60;94.50;;;;;;8376477;28;20037;-84
2024/03/22 12:44:21;;;;;;;2.22;1.42;;;22.20;93.70;;;;;;8359523;28;20028;-84
2024/03/22 12:48:21;;;;;;;1.92;1.40;;;22.60;92.90;;;;;;8377979;28;20033;-85
2024/03/22 12:52:22;;;;;;;2.35;1.30;;;22.20;94.10;;;;;;8361534;28;20029;-84
2024/03/22 12:56:23;;;;;;;1.40;1.13;;;21.50;93.60;;;;;;8358777;28;20029;-84
2024/03/22 13:00:25;;;;;;;1.35;1.10;;;22.00;94.50;;;;;;8369720;28;20040;-83
2024/03/22 13:04:25;;;;;;;1.65;1.20;;;22.10;92.50;;;;;;8370175;28;20112;-84
2024/03/22 13:08:26;;;;;;;2.38;1.48;;;22.70;90.70;;;;;;8356761;28;20033;-84
2024/03/22 13:12:28;;;;;;;1.67;1.10;;;23.10;87.00;;;;;;8366957;28;20029;-84
2024/03/22 13:16:29;;;;;;;2.13;1.20;;;23.40;82.90;;;;;;8381765;28;20106;-85
2024/03/22 13:20:29;;;;;;;2.28;0.95;;;25.00;79.60;;;;;;8373637;28;20085;-85
2024/03/22 13:24:30;;;;;;;1.88;1.20;;;24.70;76.80;;;;;;8364031;28;20334;-85
2024/03/22 13:28:30;;;;;;;1.27;1.17;;;25.60;79.70;;;;;;8377189;28;20170;-86
2024/03/22 13:32:31;;;;;;;2.13;1.40;;;26.40;71.90;;;;;;8385697;28;20020;-85
2024/03/22 13:36:33;;;;;;;1.40;1.02;;;25.70;71.70;;;;;;8360990;28;20029;-86
2024/03/22 13:40:33;;;;;;;2.63;1.27;;;26.00;68.40;;;;;;8362722;28;20025;-86
2024/03/22 13:44:34;;;;;;;1.90;0.90;;;25.50;69.80;;;;;;8385423;28;20517;-85
2024/03/22 13:48:35;;;;;;;1.95;1.10;;;24.00;65.80;;;;;;8382096;28;20401;-86
2024/03/22 13:52:36;;;;;;;3.38;1.98;;;23.30;69.50;;;;;;8341624;28;20052;-85
2024/03/22 13:56:37;;;;;;;1.58;1.10;;;22.40;73.90;;;;;;8374766;28;20032;-86
2024/03/22 14:00:38;;;;;;;1.95;0.88;;;22.60;73.50;;;;;;8387349;28;20093;-86
2024/03/22 14:04:39;;;;;;;1.17;0.90;;;24.10;68.80;;;;;;8376139;28;20044;-85
2024/03/22 14:08:39;;;;;;;1.33;1.05;;;25.30;65.00;;;;;;8376152;28;20679;-86
2024/03/22 14:12:40;;;;;;;2.10;1.20;;;25.90;64.80;;;;;;8373936;28;20028;-86
2024/03/22 14:16:41;;;;;;;3.95;1.40;;;24.80;66.70;;;;;;8378734;28;20045;-86
2024/03/22 14:20:41;;;;;;;2.40;1.17;;;23.50;71.60;;;;;;8374290;28;20493;-86
2024/03/22 14:24:42;;;;;;;1.30;1.05;;;22.40;72.80;;;;;;8352613;28;20020;-86
2024/03/22 14:28:43;;;;;;;1.15;1.00;;;21.40;77.00;;;;;;8374131;28;20017;-85
2024/03/22 14:32:44;;;;;;;2.80;1.23;;;20.90;77.10;;;;;;8369701;28;20469;-86
2024/03/22 14:36:45;;;;;;;2.47;1.20;;;20.80;77.80;;;;;;8373024;28;20037;-86
2024/03/22 14:40:46;;;;;;;1.92;1.40;;;20.80;77.80;;;;;;8361227;28;20031;-86
2024/03/22 14:44:46;;;;;;;1.52;1.15;;;20.60;77.80;;;;;;8374266;28;20021;-86
2024/03/22 14:48:47;;;;;;;1.58;1.20;;;20.00;80.90;;;;;;8381887;28;20017;-85
2024/03/22 14:52:51;;;;;;;1.85;1.30;;;19.90;84.20;;;;;;8379725;28;20036;-86
2024/03/22 14:56:53;;;;;;;2.85;1.40;;;19.80;85.40;;;;;;8370077;28;20022;-87
2024/03/22 15:00:55;;;;;;;2.08;1.40;;;19.50;82.40;;;;;;8379151;28;20063;-87
2024/03/22 15:04:55;;;;;;;1.83;1.30;;;20.90;80.50;;;;;;8349652;28;20382;-87
2024/03/22 15:08:57;;;;;;;1.50;1.20;;;23.40;74.40;;;;;;8379397;28;20017;-89
2024/03/22 15:12:57;;;;;;;1.65;1.40;;;23.50;71.30;;;;;;8364194;28;20048;-87
2024/03/22 15:16:58;;;;;;;1.48;1.20;;;22.70;72.90;;;;;;8360781;28;20032;-87
2024/03/22 15:20:58;;;;;;;3.17;1.30;;;22.10;75.30;;;;;;8370487;28;20346;-88
2024/03/22 15:24:59;;;;;;;2.30;1.52;;;21.00;76.90;;;;;;8375568;28;20025;-87
2024/03/22 15:28:59;;;;;;;2.33;1.48;;;19.80;79.90;;;;;;8365759;28;20021;-87
2024/03/22 15:33:01;;;;;;;1.85;1.23;;;18.90;84.50;;;;;;8362800;28;20021;-86
2024/03/22 15:37:02;;;;;;;2.10;1.52;;;18.40;88.20;;;;;;8369862;28;20107;-87
2024/03/22 15:41:02;;;;;;;3.42;1.95;;;18.30;87.70;;;;;;8376852;28;20040;-87
2024/03/22 15:45:05;;;;;;;2.53;1.40;;;18.10;87.70;;;;;;8368378;28;20040;-87
2024/03/22 15:49:05;;;;;;;2.00;1.45;;;17.80;88.90;;;;;;8348639;28;20086;-87
2024/03/22 15:53:06;;;;;;;2.63;1.67;;;17.90;90.50;;;;;;8356820;28;20029;-87
2024/03/22 15:57:07;;;;;;;3.65;1.73;;;17.90;90.60;;;;;;8365428;28;20033;-87
2024/03/22 16:01:08;;;;;;;3.67;1.30;;;18.30;90.30;;;;;;8380728;28;20029;-87
2024/03/22 16:05:09;;;;;;;3.42;1.60;;;18.70;90.10;;;;;;8349548;28;20591;-87
2024/03/22 16:09:10;;;;;;;2.47;1.45;;;19.70;85.60;;;;;;8309491;28;20027;-87
2024/03/22 16:13:11;;;;;;;2.53;1.60;;;20.30;83.80;;;;;;8319251;28;20022;-87
2024/03/22 16:17:12;;;;;;;1.98;1.67;;;20.60;86.70;;;;;;8330971;28;20025;-85
2024/03/22 16:21:13;;;;;;;2.92;1.98;;;20.00;85.80;;;;;;8314831;28;20654;-84
2024/03/22 16:25:13;;;;;;;4.45;2.15;;;20.10;86.80;;;;;;8328432;28;20029;-85
2024/03/22 16:29:14;;;;;;;2.72;1.67;;;19.70;87.10;;;;;;8336931;28;20051;-85
2024/03/22 16:33:15;;;;;;;3.50;1.70;;;18.50;90.90;;;;;;8339177;28;20119;-86
2024/03/22 16:37:15;;;;;;;3.10;1.88;;;17.60;91.20;;;;;;8333016;28;20086;-85
2024/03/22 16:41:16;;;;;;;3.67;1.90;;;17.00;92.00;;;;;;8330186;28;20040;-84
2024/03/22 16:45:18;;;;;;;2.55;1.88;;;16.70;92.30;;;;;;8340289;28;20035;-84
2024/03/22 16:49:19;;;;;;;3.13;1.40;;;16.50;92.40;;;;;;8314000;28;20029;-87
2024/03/22 16:53:21;;;;;;;2.10;1.52;;;16.20;93.10;;;;;;8337810;28;20040;-87
2024/03/22 16:57:22;;;;;;;1.52;1.20;;;16.00;92.90;;;;;;8336035;28;20571;-87
2024/03/22 17:01:22;;;;;;;3.60;1.42;;;15.80;93.40;;;;;;8327268;28;20025;-87
2024/03/22 17:05:24;;;;;;;3.22;1.50;;;15.60;93.50;;;;;;8331553;28;20549;-87
2024/03/22 17:09:24;;;;;;;3.83;1.33;;;15.30;94.00;;;;;;8312915;28;20577;-86
2024/03/22 17:13:25;;;;;;;1.20;1.10;;;14.90;94.40;;;;;;8313135;28;20022;-87
2024/03/22 17:17:38;;;;;;;2.85;1.33;;;14.70;94.60;;;;;;8313496;28;20033;-87
2024/03/22 17:21:38;;;;;;;1.33;1.08;;;14.50;95.90;;;;;;8312218;28;20029;-86
2024/03/22 17:25:39;;;;;;;2.47;1.30;;;14.30;96.40;;;;;;8312672;28;20036;-87
2024/03/22 17:29:40;;;;;;;1.30;0.95;;;14.00;96.80;;;;;;8311971;28;20029;-88
2024/03/22 17:33:40;;;;;;;1.90;1.45;;;13.90;95.50;;;;;;8312359;28;20021;-87
2024/03/22 17:37:41;;;;;;;1.15;1.02;;;13.90;96.20;;;;;;8313452;28;20026;-87
2024/03/22 17:41:41;;;;;;;1.45;1.08;;;13.70;97.60;;;;;;8331190;28;20036;-86
2024/03/22 17:45:42;;;;;;;1.58;1.00;;;13.50;98.20;;;;;;8312079;28;20700;-86
2024/03/22 17:49:42;;;;;;;2.47;1.10;;;13.30;98.80;;;;;;8328957;28;20029;-86
2024/03/22 17:53:43;;;;;;;1.80;1.30;;;13.20;97.90;;;;;;8330362;28;20094;-86
2024/03/22 17:57:45;;;;;;;2.33;1.27;;;13.10;99.50;;;;;;8312033;28;20502;-86
2024/03/22 18:01:47;;;;;;;1.40;1.20;;;13.20;99.30;;;;;;8326364;28;20033;-87
2024/03/22 18:05:47;;;;;;;1.65;0.98;;;13.30;98.70;;;;;;8333102;28;20028;-85
2024/03/22 18:09:48;;;;;;;1.67;1.30;;;13.40;98.50;;;;;;8363758;28;20068;-85
2024/03/22 18:13:50;;;;;;;1.10;1.00;;;13.60;98.30;;;;;;8382190;28;20405;-85
2024/03/22 18:17:50;;;;;;;1.85;1.30;;;13.50;98.10;;;;;;8358684;28;20032;-85
2024/03/22 18:21:53;;;;;;;1.42;1.17;;;13.60;98.20;;;;;;8379096;28;20100;-85
2024/03/22 18:25:54;;;;;;;2.72;1.50;;;13.70;98.20;;;;;;8373868;28;20048;-86
2024/03/22 18:29:55;;;;;;;1.77;1.30;;;13.80;97.70;;;;;;8372721;28;20025;-85
2024/03/22 18:33:55;;;;;;;2.50;1.60;;;13.60;98.70;;;;;;8350394;28;20473;-85
2024/03/22 18:37:56;;;;;;;3.22;1.70;;;13.50;97.90;;;;;;8378322;28;20572;-85
2024/03/22 18:41:56;;;;;;;2.53;1.35;;;13.60;97.80;;;;;;8372475;28;20018;-86
2024/03/22 18:45:57;;;;;;;1.80;1.30;;;13.60;97.30;;;;;;8377562;28;20052;-85
2024/03/22 18:49:57;;;;;;;2.17;1.50;;;13.60;97.20;;;;;;8371406;28;20025;-85
2024/03/22 18:53:58;;;;;;;2.58;1.40;;;13.70;97.10;;;;;;8375621;28;20098;-85
2024/03/22 18:57:59;;;;;;;2.17;1.38;;;13.60;97.90;;;;;;8373976;28;20063;-85
2024/03/22 19:01:59;;;;;;;1.95;1.30;;;13.60;97.60;;;;;;8383931;28;20025;-84
2024/03/22 19:06:00;;;;;;;3.05;1.77;;;13.50;97.30;;;;;;8371301;28;20029;-85
2024/03/22 19:10:00;;;;;;;3.13;1.55;;;13.50;98.30;;;;;;8378566;28;20017;-86
2024/03/22 19:14:01;;;;;;;2.75;1.70;;;13.30;98.30;;;;;;8376965;28;20811;-85
2024/03/22 19:18:03;;;;;;;2.40;1.30;;;13.20;99.10;;;;;;8349746;28;20032;-85
2024/03/22 19:22:05;;;;;;;4.00;1.60;;;13.30;98.50;;;;;;8374787;28;20017;-86
2024/03/22 19:26:05;;;;;;;2.17;1.60;;;13.30;98.50;;;;;;8369680;28;20087;-85
2024/03/22 19:30:07;;;;;;;3.47;1.27;;;13.30;99.60;;;;;;8388617;28;20029;-85
2024/03/22 19:34:11;;;;;;;2.45;1.75;;;13.20;99.90;;;;;;8369938;28;20028;-86
2024/03/22 19:38:12;;;;;;;2.72;1.50;;;13.20;99.90;;;;;;8358966;28;20047;-85
2024/03/22 19:42:12;;;;;;;2.92;1.42;;;13.20;99.90;;;;;;8367937;28;20025;-85
2024/03/22 19:46:13;;;;;;;2.17;1.50;;;12.50;99.90;;;;;;8367268;28;20029;-86
2024/03/22 19:50:25;;;;;;;2.65;1.67;;;11.60;99.90;;;;;;8357159;28;20017;-85
2024/03/22 19:54:25;;;;;;;2.95;1.88;;;10.90;99.90;;;;;;8360276;28;20062;-85
2024/03/22 19:58:27;;;;;;;3.20;2.08;;;10.40;99.90;;;;;;8363972;28;20028;-86
2024/03/22 20:02:33;;;;;;;2.45;1.60;;;10.10;99.90;;;;;;8379140;28;20036;-86
2024/03/22 20:06:52;;;;;;;2.80;2.15;;;10.10;99.90;;;;;;8368548;28;20397;-85
2024/03/22 20:10:56;;;;;;;2.92;1.88;;;10.50;99.90;;;;;;8377832;28;20148;-84
2024/03/22 20:14:59;;;;;;;5.75;2.30;;;10.60;99.90;;;;;;8390493;28;20021;-86
2024/03/22 20:19:12;;;;;;;6.50;2.00;;;10.70;99.90;;;;;;8376350;28;20016;-86
2024/03/22 20:23:16;;;;;;;3.83;2.10;;;10.30;99.90;;;;;;8356728;28;20021;-85
2024/03/22 20:27:19;;;;;;;3.35;2.38;;;10.60;99.90;;;;;;8365784;28;20429;-85
2024/03/22 20:31:39;;;;;;;2.22;1.90;;;10.80;99.90;;;;;;8373072;28;20024;-85
2024/03/22 20:35:46;;;;;;;2.95;2.05;;;11.00;99.90;;;;;;8384036;28;20024;-85
2024/03/22 20:39:49;;;;;;;4.82;2.10;;;10.90;99.90;;;;;;8363541;28;20625;-85
2024/03/22 20:43:51;;;;;;;4.15;2.25;;;10.60;99.90;;;;;;8381460;28;20413;-85
2024/03/22 20:47:56;;;;;;;3.65;2.13;;;10.30;99.90;;;;;;8350696;28;20037;-86
2024/03/22 20:52:05;;;;;;;3.08;2.17;;;10.30;99.90;;;;;;8371056;28;20379;-84
2024/03/22 20:56:07;;;;;;;5.47;2.55;;;10.20;99.90;;;;;;8370535;28;20123;-84